Time;durP1;ratioP1;P1;durP2;ratioP2;P2;SDS_P1;SDS_P2;PMS_P1;PMS_P2;Temp;Humidity;BMP_temperature;BMP_pressure;BME280_temperature;BME280_humidity;BME280_pressure;Samples;Min_cycle;Max_cycle;Signal;HPM_P1;HPM_P2
2021/12/04 00:01:17;;;;;;;32.72;11.98;;;;;;;-149.78;100.00;50491.00;5031535;28;20034;-67
2021/12/04 00:03:43;;;;;;;28.45;11.30;;;;;;;-149.78;100.00;50494.91;5031666;28;20064;-65
2021/12/04 00:06:29;;;;;;;31.67;12.10;;;;;;;-149.78;100.00;50504.69;5035488;28;20112;-65
2021/12/04 00:09:01;;;;;;;30.92;10.68;;;;;;;-149.78;100.00;50498.81;5033415;28;20068;-65
2021/12/04 00:11:27;;;;;;;32.17;10.48;;;;;;;-149.78;100.00;50471.44;5033142;28;20041;-65
2021/12/04 00:13:53;;;;;;;29.13;9.20;;;;;;;-149.78;100.00;50534.03;5034213;28;20044;-65
2021/12/04 00:16:18;;;;;;;35.03;10.77;;;;;;;-149.78;100.00;50510.56;5029030;28;20026;-65
2021/12/04 00:18:44;;;;;;;24.55;9.40;;;;;;;-149.78;100.00;50532.06;5030839;28;20038;-65
2021/12/04 00:21:12;;;;;;;28.90;9.80;;;;;;;-149.78;100.00;50524.25;5032863;28;20060;-65
2021/12/04 00:23:37;;;;;;;29.20;9.57;;;;;;;-149.78;100.00;50518.38;5032450;28;20453;-65
2021/12/04 00:26:04;;;;;;;34.22;11.52;;;;;;;-149.78;100.00;50502.75;5033061;28;20123;-65
2021/12/04 00:28:30;;;;;;;31.90;9.27;;;;;;;-149.78;100.00;50506.66;5031971;28;20025;-65
2021/12/04 00:30:56;;;;;;;36.05;10.05;;;;;;;-149.78;100.00;50463.63;5033495;28;20388;-65
2021/12/04 00:33:30;;;;;;;29.23;9.25;;;;;;;-149.78;100.00;50491.00;5031910;28;20041;-64
2021/12/04 00:36:01;;;;;;;29.70;9.02;;;;;;;-149.78;100.00;50530.13;5032453;28;20172;-65
2021/12/04 00:49:18;;;;;;;32.60;8.68;;;;;;;-149.78;100.00;50465.56;5029934;28;20029;-64
2021/12/04 00:51:50;;;;;;;30.33;8.65;;;;;;;-149.78;100.00;50534.03;5028197;28;20456;-64
2021/12/04 00:54:18;;;;;;;23.42;8.70;;;;;;;-149.78;100.00;50502.75;5030390;28;20477;-64
2021/12/04 00:56:44;;;;;;;34.72;8.32;;;;;;;-149.78;100.00;50498.81;5030664;28;20464;-67
2021/12/04 00:59:12;;;;;;;22.05;7.25;;;;;;;-149.78;100.00;50494.91;5031072;28;20396;-67
2021/12/04 01:01:40;;;;;;;19.15;7.43;;;;;;;-149.78;100.00;50487.09;5031421;28;20079;-65
2021/12/04 01:04:10;;;;;;;30.90;8.00;;;;;;;-149.78;100.00;50479.28;5033995;28;20373;-66
2021/12/04 01:06:36;;;;;;;22.17;7.28;;;;;;;-149.78;100.00;50479.28;5029982;28;20029;-65
2021/12/04 01:09:02;;;;;;;26.67;8.20;;;;;;;-149.78;100.00;50530.13;5033316;28;20044;-65
2021/12/04 01:11:28;;;;;;;19.88;7.38;;;;;;;-149.78;100.00;50518.38;5033125;28;20088;-65
2021/12/04 01:13:53;;;;;;;25.38;8.75;;;;;;;-149.78;100.00;50506.66;5027003;28;20431;-66
2021/12/04 01:16:19;;;;;;;25.45;8.40;;;;;;;-149.78;100.00;50520.34;5033463;28;20039;-66
2021/12/04 01:18:45;;;;;;;27.58;8.95;;;;;;;-149.78;100.00;50504.69;5028196;28;20088;-66
2021/12/04 01:21:11;;;;;;;30.80;8.82;;;;;;;-149.78;100.00;50483.19;5029348;28;20045;-66
2021/12/04 01:23:38;;;;;;;26.50;9.27;;;;;;;-149.78;100.00;50489.03;5030239;28;20500;-66
2021/12/04 01:26:03;;;;;;;30.50;9.30;;;;;;;-149.78;100.00;50514.47;5032258;28;20427;-66
2021/12/04 01:28:29;;;;;;;37.13;8.70;;;;;;;-149.78;100.00;50512.50;5030350;28;20092;-66
2021/12/04 01:30:55;;;;;;;21.30;8.50;;;;;;;-149.78;100.00;50483.19;5033858;28;20025;-66
2021/12/04 01:33:20;;;;;;;25.02;8.32;;;;;;;-149.78;100.00;50524.25;5029878;28;20033;-66
2021/12/04 01:35:46;;;;;;;24.33;7.43;;;;;;;-149.78;100.00;50518.38;5033025;28;20069;-66
2021/12/04 01:38:12;;;;;;;18.23;6.72;;;;;;;-149.78;100.00;50487.09;5033045;28;20029;-66
2021/12/04 01:40:38;;;;;;;24.27;7.25;;;;;;;-149.78;100.00;50530.13;5032803;28;20041;-66
2021/12/04 01:43:05;;;;;;;22.85;7.63;;;;;;;-149.78;100.00;50479.28;5029272;28;20030;-66
2021/12/04 01:45:31;;;;;;;18.73;7.90;;;;;;;-149.78;100.00;50522.28;5033762;28;20037;-66
2021/12/04 01:47:58;;;;;;;22.33;7.82;;;;;;;-149.78;100.00;50522.28;5030752;28;20072;-66
2021/12/04 01:50:24;;;;;;;30.10;8.38;;;;;;;-149.78;100.00;50492.97;5032962;28;20112;-66
2021/12/04 01:52:49;;;;;;;23.50;7.95;;;;;;;-149.78;100.00;50514.47;5033284;28;20040;-66
2021/12/04 01:55:15;;;;;;;22.90;7.35;;;;;;;-149.78;100.00;50506.66;5034408;28;20045;-66
2021/12/04 01:57:41;;;;;;;25.65;8.18;;;;;;;-149.78;100.00;50483.19;5034826;28;20034;-66
2021/12/04 02:00:08;;;;;;;19.55;7.63;;;;;;;-149.78;100.00;50502.75;5031950;28;20118;-66
2021/12/04 02:02:35;;;;;;;26.42;7.88;;;;;;;-149.78;100.00;50516.44;5022299;28;20033;-66
2021/12/04 02:05:01;;;;;;;20.92;7.50;;;;;;;-149.78;100.00;50510.56;5033450;28;20061;-66
2021/12/04 02:07:27;;;;;;;24.90;7.82;;;;;;;-149.78;100.00;50489.03;5033654;28;20085;-66
2021/12/04 02:09:53;;;;;;;22.25;7.38;;;;;;;-149.78;100.00;50510.56;5034002;28;20041;-66
2021/12/04 02:12:20;;;;;;;22.60;7.10;;;;;;;-149.78;100.00;50502.75;5032842;28;20037;-66
2021/12/04 02:14:46;;;;;;;23.50;7.55;;;;;;;-149.78;100.00;50494.91;5033878;28;20074;-66
2021/12/04 02:17:11;;;;;;;17.52;7.45;;;;;;;-149.78;100.00;50498.81;5032355;28;20489;-66
2021/12/04 02:19:37;;;;;;;29.70;8.25;;;;;;;-149.78;100.00;50522.28;5034060;28;20036;-66
2021/12/04 02:22:03;;;;;;;28.95;8.45;;;;;;;-149.78;100.00;50512.50;5033041;28;20378;-66
2021/12/04 02:24:29;;;;;;;24.88;7.82;;;;;;;-149.78;100.00;50494.91;5027899;28;20478;-66
2021/12/04 02:26:54;;;;;;;30.00;9.48;;;;;;;-149.78;100.00;50479.28;5032821;28;20380;-66
2021/12/04 02:29:20;;;;;;;24.20;9.02;;;;;;;-149.78;100.00;50530.13;5032054;28;20040;-66
2021/12/04 02:31:51;;;;;;;29.00;9.38;;;;;;;-149.78;100.00;50522.28;5013126;28;20044;-66
2021/12/04 02:34:22;;;;;;;28.17;10.63;;;;;;;-149.78;100.00;50502.75;5032626;28;20080;-66
2021/12/04 02:36:48;;;;;;;30.35;10.43;;;;;;;-149.78;100.00;50518.38;5025065;28;20030;-66
2021/12/04 02:39:29;;;;;;;31.30;11.77;;;;;;;-149.78;100.00;50514.47;5025010;28;20049;-66
2021/12/04 02:41:55;;;;;;;34.42;11.77;;;;;;;-149.78;100.00;50487.09;5026936;28;20054;-66
2021/12/04 02:44:24;;;;;;;27.52;10.88;;;;;;;-149.78;100.00;50483.19;5029575;28;20447;-66
2021/12/04 02:46:50;;;;;;;31.58;11.02;;;;;;;-149.78;100.00;50532.06;5027128;28;20034;-66
2021/12/04 02:49:16;;;;;;;33.58;11.68;;;;;;;-149.78;100.00;50522.28;5031690;28;20108;-66
2021/12/04 02:51:42;;;;;;;33.42;11.43;;;;;;;-149.78;100.00;50516.44;5026858;28;20036;-66
2021/12/04 02:54:10;;;;;;;30.23;10.80;;;;;;;-149.78;100.00;50502.75;5031486;28;20061;-66
2021/12/04 02:56:36;;;;;;;34.22;11.70;;;;;;;-149.78;100.00;50522.28;5032192;28;20031;-66
2021/12/04 02:59:03;;;;;;;31.20;10.98;;;;;;;-149.78;100.00;50494.91;5021146;28;20101;-66
2021/12/04 03:01:29;;;;;;;28.38;9.82;;;;;;;-149.78;100.00;50506.66;5025358;28;20505;-66
2021/12/04 03:04:12;;;;;;;22.45;9.13;;;;;;;-149.78;100.00;50512.50;5030757;28;20061;-66
2021/12/04 03:06:43;;;;;;;30.17;9.18;;;;;;;-149.78;100.00;50498.81;5021449;28;20029;-66
2021/12/04 03:09:09;;;;;;;25.13;8.73;;;;;;;-149.78;100.00;50494.91;5030369;28;20576;-66
2021/12/04 03:11:36;;;;;;;27.27;8.70;;;;;;;-149.78;100.00;50502.75;5031563;28;20385;-66
2021/12/04 03:14:03;;;;;;;25.23;9.38;;;;;;;-149.78;100.00;50483.19;5027225;28;20040;-66
2021/12/04 03:16:30;;;;;;;22.75;9.02;;;;;;;-149.78;100.00;50483.19;5028700;28;20397;-66
2021/12/04 03:18:56;;;;;;;28.95;8.43;;;;;;;-149.78;100.00;50498.81;5026296;28;20132;-66
2021/12/04 03:21:22;;;;;;;21.20;8.35;;;;;;;-149.78;100.00;50526.22;5027859;28;20533;-66
2021/12/04 03:24:03;;;;;;;26.63;7.25;;;;;;;-149.78;100.00;50510.56;5026364;28;20033;-66
2021/12/04 03:26:29;;;;;;;19.77;6.82;;;;;;;-149.78;100.00;50528.16;5029394;28;20040;-66
2021/12/04 03:28:56;;;;;;;21.05;6.57;;;;;;;-149.78;100.00;50518.38;5030194;28;20030;-66
2021/12/04 03:42:11;;;;;;;20.98;6.63;;;;;;;-149.78;100.00;50518.38;5029194;28;20056;-66
2021/12/04 03:44:38;;;;;;;19.50;6.40;;;;;;;-149.78;100.00;50491.00;5030135;28;20120;-66
2021/12/04 03:47:05;;;;;;;22.00;6.65;;;;;;;-149.78;100.00;50498.81;5023648;28;20028;-66
2021/12/04 03:49:31;;;;;;;23.05;7.65;;;;;;;-149.78;100.00;50498.81;5030433;28;20052;-66
2021/12/04 03:51:57;;;;;;;22.55;6.97;;;;;;;-149.78;100.00;50496.88;5030990;28;20055;-66
2021/12/04 03:54:23;;;;;;;23.00;7.10;;;;;;;-149.78;100.00;50485.13;5029290;28;20037;-66
2021/12/04 03:57:00;;;;;;;17.38;6.30;;;;;;;-149.78;100.00;50483.19;5030557;28;20043;-66
2021/12/04 03:59:26;;;;;;;15.10;5.97;;;;;;;-149.78;100.00;50514.47;5030020;28;20392;-66
2021/12/04 04:01:52;;;;;;;9.43;4.03;;;;;;;-149.78;100.00;50494.91;5028148;28;20451;-66
2021/12/04 04:04:18;;;;;;;9.52;3.40;;;;;;;-149.78;100.00;50561.41;5029060;28;20424;-66
2021/12/04 04:06:44;;;;;;;6.00;2.58;;;;;;;-149.78;100.00;50506.66;5030247;28;20045;-66
2021/12/04 04:09:09;;;;;;;6.50;2.50;;;;;;;-149.78;100.00;50537.94;5027039;28;20481;-66
2021/12/04 04:11:36;;;;;;;2.90;2.00;;;;;;;-149.78;100.00;50502.75;5028024;28;20033;-66
2021/12/04 04:14:05;;;;;;;2.67;1.65;;;;;;;-149.78;100.00;50496.88;5023635;28;20084;-66
2021/12/04 04:16:34;;;;;;;1.95;1.25;;;;;;;-149.78;100.00;50487.09;5028494;28;21182;-66
2021/12/04 04:19:02;;;;;;;1.40;1.10;;;;;;;-149.78;100.00;50510.56;5027007;28;20033;-66
2021/12/04 04:21:28;;;;;;;4.15;0.93;;;;;;;-149.78;100.00;50528.16;5044823;28;20041;-66
2021/12/04 04:23:54;;;;;;;0.68;0.68;;;;;;;-149.78;100.00;50487.09;5032201;28;20037;-66
2021/12/04 04:26:20;;;;;;;1.77;0.90;;;;;;;-149.78;100.00;50510.56;5019312;28;20030;-66
2021/12/04 04:28:45;;;;;;;1.10;0.50;;;;;;;-149.78;100.00;50522.28;5029333;28;20211;-66
2021/12/04 04:31:11;;;;;;;1.15;0.70;;;;;;;-149.78;100.00;50526.22;5001599;28;20038;-66
2021/12/04 04:33:41;;;;;;;1.38;0.57;;;;;;;-149.78;100.00;50498.81;5027730;28;20118;-66
2021/12/04 04:38:47;;;;;;;0.98;0.60;;;;;;;-149.78;100.00;50534.03;5028852;28;20526;-66
2021/12/04 04:58:07;;;;;;;1.35;0.70;;;;;;;-149.78;100.00;50491.00;5034180;28;20396;-66
2021/12/04 05:11:33;;;;;;;4.63;0.50;;;;;;;-149.78;100.00;50526.22;5033293;28;20044;-66
2021/12/04 05:14:02;;;;;;;4.20;0.73;;;;;;;-149.78;100.00;50502.75;5034720;28;20033;-66
2021/12/04 05:16:39;;;;;;;3.22;0.50;;;;;;;-149.78;100.00;50502.75;5032659;28;20053;-66
2021/12/04 05:19:12;;;;;;;0.60;0.40;;;;;;;-149.78;100.00;50534.03;5033622;28;20373;-66
2021/12/04 05:21:38;;;;;;;2.03;0.50;;;;;;;-149.78;100.00;50498.81;5032926;28;20086;-66
2021/12/04 05:24:03;;;;;;;3.50;0.68;;;;;;;-149.78;100.00;50522.28;5033991;28;20368;-66
2021/12/04 05:26:30;;;;;;;1.05;0.43;;;;;;;-149.78;100.00;50534.03;5030543;28;20041;-66
2021/12/04 05:28:58;;;;;;;6.10;1.27;;;;;;;-149.78;100.00;50498.81;5025006;28;20436;-66
2021/12/04 05:31:24;;;;;;;3.15;0.65;;;;;;;-149.78;100.00;50530.13;5033464;28;20052;-65
2021/12/04 05:33:51;;;;;;;2.28;0.40;;;;;;;-149.78;100.00;50522.28;5033779;28;20041;-66
2021/12/04 05:36:18;;;;;;;4.47;0.77;;;;;;;-149.78;100.00;50557.50;5034150;28;20087;-66
2021/12/04 05:38:44;;;;;;;2.38;0.55;;;;;;;-149.78;100.00;50506.66;5033342;28;20037;-66
2021/12/04 05:41:10;;;;;;;2.47;0.57;;;;;;;-149.78;100.00;50534.03;5032946;28;20079;-66
2021/12/04 05:43:36;;;;;;;4.10;0.70;;;;;;;-149.78;100.00;50526.22;5032224;28;20029;-66
2021/12/04 05:46:16;;;;;;;0.63;0.50;;;;;;;-149.78;100.00;50549.69;5029627;28;20032;-66
2021/12/04 05:54:00;;;;;;;1.95;0.55;;;;;;;-149.78;100.00;50530.13;5033819;28;20177;-66
2021/12/04 05:56:27;;;;;;;2.13;0.70;;;;;;;-149.78;100.00;50561.41;5031714;28;20068;-66
2021/12/04 05:58:53;;;;;;;5.85;0.90;;;;;;;-149.78;100.00;50522.28;5033154;28;20033;-66
2021/12/04 06:01:21;;;;;;;4.40;0.93;;;;;;;-149.78;100.00;50532.06;5033459;28;20419;-66
2021/12/04 06:03:47;;;;;;;4.63;1.05;;;;;;;-149.78;100.00;50526.22;5032363;28;20038;-66
2021/12/04 06:06:13;;;;;;;6.20;0.98;;;;;;;-149.78;100.00;50510.56;5032874;28;20036;-66
2021/12/04 06:08:39;;;;;;;5.68;1.83;;;;;;;-149.78;100.00;50532.06;5032818;28;20053;-66
2021/12/04 06:11:04;;;;;;;5.03;1.95;;;;;;;-149.78;100.00;50537.94;5031811;28;20381;-66
2021/12/04 06:13:30;;;;;;;10.70;2.58;;;;;;;-149.78;100.00;50508.59;5034012;28;20088;-66
2021/12/04 06:15:56;;;;;;;8.63;3.67;;;;;;;-149.78;100.00;50532.06;5033152;28;20034;-65
2021/12/04 06:18:22;;;;;;;14.23;4.55;;;;;;;-149.78;100.00;50479.28;5033228;28;20052;-65
2021/12/04 06:23:33;;;;;;;13.98;4.80;;;;;;;-149.78;100.00;50557.50;5032905;28;20044;-65
2021/12/04 06:26:00;;;;;;;13.32;4.53;;;;;;;-149.78;100.00;50498.81;5033352;28;20029;-66
2021/12/04 06:28:25;;;;;;;13.88;4.68;;;;;;;-149.78;100.00;50498.81;5031625;28;20033;-66
2021/12/04 06:30:54;;;;;;;17.58;5.22;;;;;;;-149.78;100.00;50502.75;5033251;28;20496;-66
2021/12/04 06:33:21;;;;;;;12.10;4.47;;;;;;;-149.78;100.00;50541.84;5031953;28;20037;-66
2021/12/04 06:35:47;;;;;;;11.48;4.00;;;;;;;-149.78;100.00;50506.66;5024650;28;20034;-66
2021/12/04 06:38:16;;;;;;;21.55;4.50;;;;;;;-149.78;100.00;50541.84;5027800;28;20108;-65
2021/12/04 06:40:42;;;;;;;16.50;4.07;;;;;;;-149.78;100.00;50524.25;5027452;28;20021;-65
2021/12/04 06:43:08;;;;;;;8.35;3.30;;;;;;;-149.78;100.00;50526.22;5030172;28;20565;-66
2021/12/04 06:45:38;;;;;;;15.40;3.85;;;;;;;-149.78;100.00;50520.34;5033424;28;20025;-66
2021/12/04 06:48:11;;;;;;;14.27;3.97;;;;;;;-149.78;100.00;50561.41;5030462;28;20036;-65
2021/12/04 06:53:20;;;;;;;14.40;2.13;;;;;;;-149.78;100.00;50535.97;5032823;28;20396;-66
2021/12/04 06:55:48;;;;;;;11.68;2.25;;;;;;;-149.78;100.00;50539.91;5031065;28;20026;-66
2021/12/04 06:58:15;;;;;;;16.17;2.67;;;;;;;-149.78;100.00;50491.00;5023981;28;20110;-66
2021/12/04 07:00:40;;;;;;;17.75;2.92;;;;;;;-149.78;100.00;50483.19;5029424;28;20083;-66
2021/12/04 07:03:06;;;;;;;9.75;3.00;;;;;;;-149.78;100.00;50506.66;5032210;28;20156;-66
2021/12/04 07:05:32;;;;;;;9.32;3.50;;;;;;;-149.78;100.00;50537.94;5031122;28;20029;-66
2021/12/04 07:07:58;;;;;;;9.13;2.83;;;;;;;-149.78;100.00;50534.03;5027691;28;20542;-66
2021/12/04 07:10:24;;;;;;;17.20;3.10;;;;;;;-149.78;100.00;50522.28;5031585;28;20408;-65
2021/12/04 07:12:49;;;;;;;9.20;2.70;;;;;;;-149.78;100.00;50520.34;5028734;28;20042;-65
2021/12/04 07:15:15;;;;;;;13.23;2.35;;;;;;;-149.78;100.00;50535.97;5030314;28;20128;-66
2021/12/04 07:17:41;;;;;;;14.98;2.90;;;;;;;-149.78;100.00;50545.75;5030849;28;20030;-66
2021/12/04 07:20:09;;;;;;;15.23;2.80;;;;;;;-149.78;100.00;50534.03;5029846;28;21388;-66
2021/12/04 07:22:35;;;;;;;14.38;3.40;;;;;;;-149.78;100.00;50498.81;5028959;28;20034;-66
2021/12/04 07:25:02;;;;;;;12.43;2.90;;;;;;;-149.78;100.00;50526.22;5030548;28;20025;-66
2021/12/04 07:27:28;;;;;;;13.00;2.97;;;;;;;-149.78;100.00;50510.56;5027038;28;20041;-65
2021/12/04 07:29:55;;;;;;;11.18;3.13;;;;;;;-149.78;100.00;50518.38;5029605;28;20413;-65
2021/12/04 07:32:21;;;;;;;10.18;3.03;;;;;;;-149.78;100.00;50537.94;5029609;28;20072;-65
2021/12/04 07:34:47;;;;;;;11.43;2.78;;;;;;;-149.78;100.00;50549.69;5028856;28;20489;-66
2021/12/04 07:37:14;;;;;;;8.13;2.45;;;;;;;-149.78;100.00;50541.84;5029765;28;20071;-65
2021/12/04 07:39:39;;;;;;;15.70;2.92;;;;;;;-149.78;100.00;50545.75;5028125;28;20033;-66
2021/12/04 07:42:05;;;;;;;10.55;2.58;;;;;;;-149.78;100.00;50532.06;5030612;28;20033;-63
2021/12/04 07:44:31;;;;;;;23.40;3.90;;;;;;;-149.78;100.00;50535.97;5029055;28;20037;-65
2021/12/04 07:46:57;;;;;;;11.65;3.08;;;;;;;-149.78;100.00;50541.84;5026319;28;20045;-64
2021/12/04 07:49:23;;;;;;;12.73;2.97;;;;;;;-149.78;100.00;50541.84;5026107;28;20374;-65
2021/12/04 07:51:50;;;;;;;8.98;2.22;;;;;;;-149.78;100.00;50553.59;5029628;28;20059;-65
2021/12/04 07:54:16;;;;;;;7.15;2.13;;;;;;;-149.78;100.00;50522.28;5028138;28;20043;-66
2021/12/04 07:56:42;;;;;;;9.38;2.30;;;;;;;-149.78;100.00;50541.84;5025375;28;20045;-65
2021/12/04 07:59:08;;;;;;;7.22;1.90;;;;;;;-149.78;100.00;50549.69;5028590;28;20037;-66
2021/12/04 08:01:33;;;;;;;10.23;3.05;;;;;;;-149.78;100.00;50537.94;5028700;28;20030;-63
2021/12/04 08:03:59;;;;;;;17.02;3.63;;;;;;;-149.78;100.00;50534.03;5030589;28;20129;-64
2021/12/04 08:06:25;;;;;;;11.00;3.03;;;;;;;-149.78;100.00;50539.91;5028698;28;20032;-65
2021/12/04 08:08:53;;;;;;;14.02;3.58;;;;;;;-149.78;100.00;50524.25;5029081;28;20045;-64
2021/12/04 08:11:19;;;;;;;15.63;3.10;;;;;;;-149.78;100.00;50528.16;5028857;28;20044;-66
2021/12/04 08:13:47;;;;;;;15.10;3.85;;;;;;;-149.78;100.00;50541.84;5030044;28;20382;-66
2021/12/04 08:16:13;;;;;;;12.60;3.90;;;;;;;-149.78;100.00;50524.25;5027009;28;20029;-67
2021/12/04 08:18:41;;;;;;;12.43;3.83;;;;;;;-149.78;100.00;50555.53;5031313;28;20052;-67
2021/12/04 08:21:08;;;;;;;7.32;3.17;;;;;;;-149.78;100.00;50522.28;5028341;28;20488;-67
2021/12/04 08:23:34;;;;;;;11.05;3.97;;;;;;;-149.78;100.00;50534.03;5020503;28;20061;-67
2021/12/04 08:26:00;;;;;;;15.55;3.70;;;;;;;-149.78;100.00;50549.69;5033868;28;20432;-67
2021/12/04 08:28:25;;;;;;;12.32;3.83;;;;;;;-149.78;100.00;50537.94;5032058;28;20037;-67
2021/12/04 08:30:51;;;;;;;8.63;3.58;;;;;;;-149.78;100.00;50541.84;5035035;28;20033;-67
2021/12/04 08:33:16;;;;;;;10.73;3.95;;;;;;;-149.78;100.00;50537.94;5033572;28;20392;-64
2021/12/04 08:35:42;;;;;;;10.43;3.70;;;;;;;-149.78;100.00;50545.75;5033854;28;20435;-65
2021/12/04 08:38:11;;;;;;;12.95;4.47;;;;;;;-149.78;100.00;50565.31;5031599;28;20051;-65
2021/12/04 08:40:38;;;;;;;6.78;3.88;;;;;;;-149.78;100.00;50514.47;5034616;28;20037;-65
2021/12/04 08:43:05;;;;;;;11.13;4.38;;;;;;;-149.78;100.00;50541.84;5033774;28;20037;-65
2021/12/04 08:45:31;;;;;;;9.82;4.20;;;;;;;-149.78;100.00;50541.84;5034836;28;20053;-65
2021/12/04 08:47:57;;;;;;;8.52;4.20;;;;;;;-149.78;100.00;50537.94;5034071;28;20030;-64
2021/12/04 08:50:26;;;;;;;10.13;4.18;;;;;;;-149.78;100.00;50553.59;5033938;28;20156;-65
2021/12/04 08:52:54;;;;;;;11.32;4.35;;;;;;;-149.78;100.00;50541.84;5031842;28;20101;-65
2021/12/04 08:55:23;;;;;;;10.98;4.15;;;;;;;-149.78;100.00;50549.69;5032997;28;20033;-65
2021/12/04 08:57:50;;;;;;;10.30;4.05;;;;;;;-149.78;100.00;50534.03;5027324;28;20041;-65
2021/12/04 09:00:21;;;;;;;8.32;4.05;;;;;;;-149.78;100.00;50532.06;5030064;28;20464;-65
2021/12/04 09:02:47;;;;;;;8.52;3.60;;;;;;;-149.78;100.00;50573.16;5033512;28;20543;-65
2021/12/04 09:05:15;;;;;;;12.35;3.70;;;;;;;-149.78;100.00;50522.28;5033793;28;20029;-65
2021/12/04 09:07:41;;;;;;;8.25;3.13;;;;;;;-149.78;100.00;50514.47;5034975;28;20488;-65
2021/12/04 09:10:09;;;;;;;8.60;3.58;;;;;;;-149.78;100.00;50537.94;5033106;28;20060;-65
2021/12/04 09:12:35;;;;;;;12.13;4.35;;;;;;;-149.78;100.00;50545.75;5032691;28;20052;-64
2021/12/04 09:15:05;;;;;;;10.50;3.47;;;;;;;-149.78;100.00;50510.56;5029967;28;20037;-65
2021/12/04 09:17:30;;;;;;;8.18;4.07;;;;;;;-149.78;100.00;50549.69;5029276;28;20026;-65
2021/12/04 09:19:56;;;;;;;6.85;3.60;;;;;;;-149.78;100.00;50535.97;5033131;28;20477;-65
2021/12/04 09:22:29;;;;;;;7.30;3.50;;;;;;;-149.78;100.00;50510.56;5028623;28;20400;-65
2021/12/04 09:24:58;;;;;;;11.75;4.15;;;;;;;-149.78;100.00;50530.13;5037313;28;20040;-65
2021/12/04 10:35:09;;;;;;;10.48;3.80;;;;;;;-149.78;100.00;50537.94;5030635;28;20038;-65
2021/12/04 10:37:45;;;;;;;7.90;3.15;;;;;;;-149.78;100.00;50500.78;5029736;28;20489;-66
2021/12/04 10:40:11;;;;;;;10.77;3.90;;;;;;;-149.78;100.00;50494.91;5027496;28;20579;-64
2021/12/04 10:42:46;;;;;;;6.55;2.97;;;;;;;-149.78;100.00;50537.94;5026629;28;20041;-66
2021/12/04 10:45:12;;;;;;;8.15;3.03;;;;;;;-149.78;100.00;50553.59;5027573;28;20127;-67
2021/12/04 10:47:49;;;;;;;6.05;2.88;;;;;;;-149.78;100.00;50522.28;5026927;28;20033;-67
2021/12/04 10:55:24;;;;;;;6.68;3.40;;;;;;;-149.78;100.00;50539.91;5030561;28;20056;-67
2021/12/04 11:46:43;;;;;;;16.42;3.20;;;;;;;-149.78;100.00;50530.13;5031927;28;20091;-67
2021/12/04 11:49:25;;;;;;;13.18;2.60;;;;;;;-149.78;100.00;50537.94;5029746;28;20033;-67
2021/12/04 11:51:59;;;;;;;10.43;2.92;;;;;;;-149.78;100.00;50494.91;5031004;28;20061;-68
2021/12/04 11:54:29;;;;;;;10.65;2.85;;;;;;;-149.78;100.00;50504.69;5027454;28;20419;-67
2021/12/04 11:57:09;;;;;;;6.68;3.15;;;;;;;-149.78;100.00;50514.47;5029354;28;20113;-67
2021/12/04 11:59:38;;;;;;;6.60;3.45;;;;;;;-149.78;100.00;50537.94;5030501;28;20184;-67
2021/12/04 12:02:09;;;;;;;9.88;3.42;;;;;;;-149.78;100.00;50516.44;5010470;28;20396;-67
2021/12/04 12:04:40;;;;;;;11.15;3.10;;;;;;;-149.78;100.00;50506.66;5030961;28;20045;-67
2021/12/04 12:07:26;;;;;;;5.50;2.60;;;;;;;-149.78;100.00;50500.78;5031114;28;20033;-67
2021/12/04 12:10:25;;;;;;;5.15;2.22;;;;;;;-149.78;100.00;50510.56;5029344;28;20022;-68
2021/12/04 12:12:53;;;;;;;7.57;2.10;;;;;;;-149.78;100.00;50510.56;5025820;28;20421;-67
2021/12/04 12:15:32;;;;;;;8.70;2.30;;;;;;;-149.78;100.00;50510.56;5031207;28;20170;-68
2021/12/04 12:18:17;;;;;;;9.10;2.90;;;;;;;-149.78;100.00;50514.47;5029390;28;20033;-66
2021/12/04 12:20:51;;;;;;;5.93;2.65;;;;;;;-149.78;100.00;50524.25;5026585;28;20396;-67
2021/12/04 12:23:21;;;;;;;10.48;2.55;;;;;;;-149.78;100.00;50514.47;5029674;28;20026;-68
2021/12/04 12:34:10;;;;;;;12.60;2.63;;;;;;;-149.78;100.00;50491.00;5027382;28;20026;-68
2021/12/04 12:36:35;;;;;;;9.80;2.35;;;;;;;-149.78;100.00;50545.75;5030418;28;20069;-68
2021/12/04 12:39:15;;;;;;;9.50;2.55;;;;;;;-149.78;100.00;50504.69;5030247;28;20057;-68
2021/12/04 12:41:48;;;;;;;10.68;2.33;;;;;;;-149.78;100.00;50530.13;5030609;28;20508;-63
2021/12/04 12:44:29;;;;;;;8.40;2.47;;;;;;;-149.78;100.00;50545.75;5029489;28;20030;-63
2021/12/04 12:47:16;;;;;;;7.72;2.50;;;;;;;-149.78;100.00;50502.75;5029889;28;20033;-64
2021/12/04 12:49:44;;;;;;;13.35;2.83;;;;;;;-149.78;100.00;50549.69;5030163;28;20493;-64
2021/12/04 12:52:21;;;;;;;12.45;2.97;;;;;;;-149.78;100.00;50520.34;5031403;28;20033;-68
2021/12/04 12:54:53;;;;;;;10.02;2.63;;;;;;;-149.78;100.00;50514.47;5014537;28;20045;-66
2021/12/04 12:57:49;;;;;;;13.90;3.10;;;;;;;-149.78;100.00;50518.38;5025628;28;20030;-66
2021/12/04 13:11:43;;;;;;;11.23;3.40;;;;;;;-149.78;100.00;50526.22;5028943;28;20045;-69
2021/12/04 13:14:17;;;;;;;10.23;3.30;;;;;;;-149.78;100.00;50518.38;5028830;28;20044;-70
2021/12/04 13:16:46;;;;;;;8.80;2.95;;;;;;;-149.78;100.00;50502.75;5030502;28;20040;-68
2021/12/04 13:19:14;;;;;;;8.82;3.05;;;;;;;-149.78;100.00;50520.34;5029704;28;20030;-68
2021/12/04 13:21:45;;;;;;;7.95;3.72;;;;;;;-149.78;100.00;50549.69;5030597;28;20061;-68
2021/12/04 13:24:13;;;;;;;8.68;3.88;;;;;;;-149.78;100.00;50580.97;5031290;28;20029;-68
2021/12/04 13:26:42;;;;;;;10.85;3.70;;;;;;;-149.78;100.00;50561.41;5030007;28;20033;-69
2021/12/04 13:29:10;;;;;;;8.25;3.30;;;;;;;-149.78;100.00;50537.94;5031569;28;20032;-69
2021/12/04 13:31:39;;;;;;;8.27;3.33;;;;;;;-149.78;100.00;50512.50;5029419;28;20496;-68
2021/12/04 13:34:08;;;;;;;9.77;3.05;;;;;;;-149.78;100.00;50561.41;5035009;28;20033;-68
2021/12/04 13:36:34;;;;;;;9.88;3.72;;;;;;;-149.78;100.00;50580.97;5033110;28;20352;-69
2021/12/04 13:39:08;;;;;;;9.15;2.80;;;;;;;-149.78;100.00;50545.75;5034284;28;20138;-67
2021/12/04 13:41:36;;;;;;;5.82;1.40;;;;;;;-149.78;100.00;50516.44;5031264;28;20368;-68
2021/12/04 13:44:05;;;;;;;5.30;1.10;;;;;;;-149.78;100.00;50528.16;5028438;28;20057;-68
2021/12/04 13:46:42;;;;;;;1.80;1.02;;;;;;;-149.78;100.00;50526.22;5024654;28;20018;-68
2021/12/04 13:49:09;;;;;;;6.88;1.35;;;;;;;-149.78;100.00;50547.72;5032782;28;20132;-67
2021/12/04 13:51:34;;;;;;;1.85;1.40;;;;;;;-149.78;100.00;50545.75;5031576;28;20033;-67
2021/12/04 13:54:02;;;;;;;3.55;1.67;;;;;;;-149.78;100.00;50522.28;5031380;28;20036;-65
2021/12/04 13:56:28;;;;;;;3.72;1.55;;;;;;;-149.78;100.00;50506.66;5031345;28;20049;-67
2021/12/04 13:58:59;;;;;;;2.63;2.00;;;;;;;-149.78;100.00;50553.59;5025690;28;20029;-66
2021/12/04 14:01:27;;;;;;;3.60;1.55;;;;;;;-149.78;100.00;50545.75;5029519;28;20028;-66
2021/12/04 14:04:01;;;;;;;5.28;1.67;;;;;;;-149.78;100.00;50520.34;5032096;28;20033;-69
2021/12/04 14:06:27;;;;;;;5.18;2.00;;;;;;;-149.78;100.00;50545.75;5033301;28;20441;-69
2021/12/04 14:08:59;;;;;;;4.70;1.83;;;;;;;-149.78;100.00;50551.63;5031682;28;20045;-69
2021/12/04 14:11:36;;;;;;;4.82;1.80;;;;;;;-149.78;100.00;50557.50;5030845;28;20045;-69
2021/12/04 14:14:11;;;;;;;3.30;1.90;;;;;;;-149.78;100.00;50526.22;5027642;28;20120;-67
2021/12/04 14:16:36;;;;;;;2.58;1.38;;;;;;;-149.78;100.00;50530.13;5030303;28;20096;-69
2021/12/04 14:19:17;;;;;;;2.00;1.02;;;;;;;-149.78;100.00;50530.13;5031589;28;20037;-68
2021/12/04 14:22:05;;;;;;;4.20;0.90;;;;;;;-149.78;100.00;50520.34;5025910;28;20052;-69
2021/12/04 14:24:37;;;;;;;2.95;0.80;;;;;;;-149.78;100.00;50565.31;5025770;28;20554;-69
2021/12/04 14:27:04;;;;;;;4.28;1.10;;;;;;;-149.78;100.00;50516.44;5025404;28;20184;-68
2021/12/04 14:29:34;;;;;;;3.42;1.00;;;;;;;-149.78;100.00;50600.53;5027840;28;20037;-68
2021/12/04 14:32:00;;;;;;;3.85;1.05;;;;;;;-149.78;100.00;50518.38;5030522;28;20025;-71
2021/12/04 14:34:29;;;;;;;3.28;0.80;;;;;;;-149.78;100.00;50530.13;5025528;28;20038;-69